createdAt,value
2022-12-24T00:01:32.657Z,89524.34
2022-12-24T00:03:59.028Z,89543.88
2022-12-24T00:06:25.390Z,89539.63
2022-12-24T00:08:52.163Z,89549.63
2022-12-24T00:11:19.079Z,89542.31
2022-12-24T00:13:45.432Z,89574.72
2022-12-24T00:16:11.807Z,89568.66
2022-12-24T00:18:45.201Z,89565.03
2022-12-24T00:21:12.559Z,89581.16
2022-12-24T00:23:39.989Z,89572.03
2022-12-24T00:26:06.396Z,89579.81
2022-12-24T00:28:32.779Z,89587.16
2022-12-24T00:30:59.222Z,89579.34
2022-12-24T00:33:25.598Z,89610.78
2022-12-24T00:35:52.405Z,89613.66
2022-12-24T00:38:18.874Z,89613.38
2022-12-24T00:40:45.436Z,89645.97
2022-12-24T00:43:11.794Z,89644.91
2022-12-24T00:45:38.180Z,89674.63
2022-12-24T00:48:04.657Z,89691.50
2022-12-24T00:50:31.010Z,89707.09
2022-12-24T00:52:57.632Z,89709.91
2022-12-24T00:55:24.220Z,89716.16
2022-12-24T00:57:50.582Z,89730.16
2022-12-24T01:00:17.964Z,89721.25
2022-12-24T01:02:44.740Z,89702.31
2022-12-24T01:05:11.672Z,89707.50
2022-12-24T01:07:39.444Z,89712.69
2022-12-24T01:10:06.733Z,89716.53
2022-12-24T01:12:33.167Z,89713.94
2022-12-24T01:14:59.527Z,89720.19
2022-12-24T01:17:25.887Z,89716.00
2022-12-24T01:19:52.486Z,89728.47
2022-12-24T01:22:19.534Z,89733.66
2022-12-24T01:24:45.991Z,89755.00
2022-12-24T01:27:12.370Z,89742.50
2022-12-24T01:29:38.745Z,89743.75
2022-12-24T01:32:05.134Z,89738.75
2022-12-24T01:34:31.606Z,89751.75
2022-12-24T01:36:57.976Z,89751.19
2022-12-24T01:39:24.358Z,89747.53
2022-12-24T01:42:09.467Z,89760.03
2022-12-24T01:44:37.415Z,89753.78
2022-12-24T01:47:06.795Z,89762.34
2022-12-24T01:49:33.239Z,89784.47
2022-12-24T01:52:08.331Z,89788.09
2022-12-24T01:54:37.362Z,89818.66
2022-12-24T01:57:08.044Z,89811.34
2022-12-24T01:59:34.658Z,89812.13
2022-12-24T02:02:01.234Z,89817.31
2022-12-24T02:04:30.794Z,89826.63
2022-12-24T02:06:57.266Z,89832.91
2022-12-24T02:09:23.872Z,89844.81
2022-12-24T02:11:50.267Z,89841.66
2022-12-24T02:14:16.703Z,89833.88
2022-12-24T02:17:00.707Z,89836.94
2022-12-24T02:19:55.217Z,89847.34
2022-12-24T02:22:55.691Z,89854.06
2022-12-24T02:25:59.847Z,89849.66
2022-12-24T02:28:51.155Z,89873.84
2022-12-24T02:31:44.848Z,89868.38
2022-12-24T02:34:48.131Z,89869.91
2022-12-24T02:37:26.478Z,89884.25
2022-12-24T02:39:59.845Z,89912.88
2022-12-24T02:42:27.710Z,89912.09
2022-12-24T02:44:56.965Z,89912.31
2022-12-24T02:47:25.116Z,89907.59
2022-12-24T02:49:51.481Z,89925.78
2022-12-24T02:52:37.255Z,89944.59
2022-12-24T02:55:12.659Z,89978.16
2022-12-24T02:57:48.535Z,89970.09
2022-12-24T03:00:19.672Z,89954.97
2022-12-24T03:03:07.949Z,89936.75
2022-12-24T03:05:46.008Z,89933.09
2022-12-24T03:08:17.210Z,89924.44
2022-12-24T03:10:56.480Z,89929.94
2022-12-24T03:13:22.904Z,89930.41
2022-12-24T03:15:49.533Z,89922.63
2022-12-24T03:18:18.189Z,89928.31
2022-12-24T03:20:57.154Z,89929.88
2022-12-24T03:23:23.538Z,89918.44
2022-12-24T03:25:49.916Z,89940.03
2022-12-24T03:28:17.776Z,89953.78
2022-12-24T03:30:45.640Z,89941.00
2022-12-24T03:33:12.372Z,89931.34
2022-12-24T03:35:38.904Z,89946.44
2022-12-24T03:38:05.265Z,89931.81
2022-12-24T03:40:31.671Z,89928.19
2022-12-24T03:42:58.034Z,89926.84
2022-12-24T03:45:24.498Z,89926.00
2022-12-24T03:47:50.865Z,89908.25
2022-12-24T03:50:17.338Z,89880.00
2022-12-24T03:52:44.139Z,89861.44
2022-12-24T03:55:10.551Z,89834.81
2022-12-24T03:57:36.986Z,89810.00
2022-12-24T04:00:05.097Z,89810.19
2022-12-24T04:02:32.152Z,89799.22
2022-12-24T04:04:58.765Z,89777.56
2022-12-24T04:07:25.111Z,89764.00
2022-12-24T04:09:51.478Z,89704.66
2022-12-24T04:12:18.070Z,89615.78
2022-12-24T04:14:44.436Z,89549.19
2022-12-24T04:17:10.792Z,89489.44
2022-12-24T04:19:37.371Z,89441.22
2022-12-24T04:22:03.819Z,89375.13
2022-12-24T04:24:30.182Z,89341.88
2022-12-24T04:26:56.736Z,89298.50
2022-12-24T04:29:23.079Z,89266.16
2022-12-24T04:31:49.501Z,89226.75
2022-12-24T04:34:16.153Z,89199.91
2022-12-24T04:36:42.489Z,89188.84
2022-12-24T04:39:08.875Z,89195.28
2022-12-24T04:41:35.232Z,89190.53
2022-12-24T04:44:01.599Z,89206.19
2022-12-24T04:46:31.507Z,89225.63
2022-12-24T04:48:58.452Z,89246.16
2022-12-24T04:51:25.327Z,89264.41
2022-12-24T04:53:52.023Z,89310.72
2022-12-24T04:56:23.034Z,89330.97
2022-12-24T04:58:49.495Z,89382.47
2022-12-24T05:01:18.431Z,89413.91
2022-12-24T05:03:45.397Z,89467.88
2022-12-24T05:06:13.029Z,89539.38
2022-12-24T05:08:39.509Z,89597.19
2022-12-24T05:11:05.987Z,89662.84
2022-12-24T05:13:40.671Z,89743.69
2022-12-24T05:16:11.078Z,89834.00
2022-12-24T05:18:37.707Z,89942.72
2022-12-24T05:21:08.584Z,90068.66
2022-12-24T05:23:53.987Z,90167.19
2022-12-24T05:26:36.095Z,90326.75
2022-12-24T05:29:03.018Z,90436.06
2022-12-24T05:31:30.481Z,90559.47
2022-12-24T05:33:57.010Z,90659.56
2022-12-24T05:36:23.825Z,90763.88
2022-12-24T05:38:50.296Z,90882.31
2022-12-24T05:41:16.750Z,90998.63
2022-12-24T05:43:43.294Z,91126.97
2022-12-24T05:46:11.287Z,91262.84
2022-12-24T05:48:37.721Z,91393.03
2022-12-24T05:51:08.590Z,91525.78
2022-12-24T05:53:35.351Z,91651.81
2022-12-24T05:56:06.018Z,91803.16
2022-12-24T05:58:32.713Z,91920.03
2022-12-24T06:00:59.101Z,92034.09
2022-12-24T06:03:25.469Z,92175.31
2022-12-24T06:06:01.189Z,92289.06
2022-12-24T06:08:28.481Z,92372.56
2022-12-24T06:10:58.651Z,92434.63
2022-12-24T06:13:25.251Z,92485.69
2022-12-24T06:15:54.696Z,92505.19
2022-12-24T06:18:21.203Z,92532.88
2022-12-24T06:20:53.319Z,92536.84
2022-12-24T06:23:19.846Z,92540.47
2022-12-24T06:25:46.640Z,92561.34
2022-12-24T06:28:13.068Z,92550.59
2022-12-24T06:30:39.482Z,92546.19
2022-12-24T06:33:05.832Z,92519.28
2022-12-24T06:35:33.254Z,92491.50
2022-12-24T06:37:59.804Z,92410.78
2022-12-24T06:40:26.933Z,92312.09
2022-12-24T06:42:53.311Z,92217.91
2022-12-24T06:45:19.700Z,92121.63
2022-12-24T06:47:46.044Z,92052.25
2022-12-24T06:50:12.410Z,91976.59
2022-12-24T06:52:38.788Z,91931.25
2022-12-24T06:55:05.551Z,91912.50
2022-12-24T06:57:31.959Z,91899.50
2022-12-24T06:59:59.006Z,91914.66
2022-12-24T07:02:25.529Z,91908.84
2022-12-24T07:04:51.934Z,91909.38
2022-12-24T07:07:18.300Z,91923.50
2022-12-24T07:09:44.658Z,91963.19
2022-12-24T07:12:11.213Z,92006.75
2022-12-24T07:14:37.562Z,92052.38
2022-12-24T07:17:04.409Z,92081.59
2022-12-24T07:19:31.069Z,92130.16
2022-12-24T07:21:57.410Z,92172.66
2022-12-24T07:24:23.949Z,92194.03
2022-12-24T07:26:50.687Z,92240.78
2022-12-24T07:29:17.039Z,92312.84
2022-12-24T07:31:43.424Z,92367.28
2022-12-24T07:34:09.866Z,92405.88
2022-12-24T07:36:36.238Z,92455.22
2022-12-24T07:39:02.628Z,92518.16
2022-12-24T07:41:29.213Z,92587.56
2022-12-24T07:43:55.648Z,92661.00
2022-12-24T07:46:22.078Z,92777.38
2022-12-24T07:48:48.628Z,92864.28
2022-12-24T07:51:15.116Z,92945.41
2022-12-24T07:53:47.597Z,93033.47
2022-12-24T07:56:16.321Z,93135.47
2022-12-24T07:58:42.865Z,93190.88
2022-12-24T08:01:09.469Z,93262.34
2022-12-24T08:03:36.010Z,93332.19
2022-12-24T08:06:02.553Z,93379.56
2022-12-24T08:08:28.919Z,93417.34
2022-12-24T08:11:00.588Z,93472.31
2022-12-24T08:13:26.920Z,93518.13
2022-12-24T08:15:53.313Z,93537.41
2022-12-24T08:18:19.742Z,93555.47
2022-12-24T08:20:46.082Z,93564.72
2022-12-24T08:23:12.440Z,93568.34
2022-12-24T08:25:42.612Z,93548.69
2022-12-24T08:28:09.149Z,93553.50
2022-12-24T08:30:36.047Z,93575.97
2022-12-24T08:33:02.666Z,93565.94
2022-12-24T08:35:29.141Z,93569.16
2022-12-24T08:37:55.563Z,93576.38
2022-12-24T08:40:22.162Z,93582.19
2022-12-24T08:42:48.621Z,93575.97
2022-12-24T08:45:15.127Z,93569.75
2022-12-24T08:47:41.980Z,93584.81
2022-12-24T08:50:09.058Z,93581.59
2022-12-24T08:52:35.489Z,93596.03
2022-12-24T08:55:02.015Z,93611.28
2022-12-24T08:57:28.403Z,93618.94
2022-12-24T08:59:54.771Z,93610.47
2022-12-24T09:02:21.541Z,93613.72
2022-12-24T09:04:48.082Z,93616.13
2022-12-24T09:07:14.489Z,93596.41
2022-12-24T09:09:40.886Z,93596.41
2022-12-24T09:12:07.941Z,93562.50
2022-12-24T09:14:34.520Z,93543.81
2022-12-24T09:17:00.997Z,93549.03
2022-12-24T09:19:27.994Z,93567.91
2022-12-24T09:21:54.357Z,93595.19
2022-12-24T09:24:21.002Z,93603.44
2022-12-24T09:26:55.598Z,93582.34
2022-12-24T09:29:24.027Z,93523.72
2022-12-24T09:31:50.761Z,93442.63
2022-12-24T09:34:17.284Z,93375.75
2022-12-24T09:36:43.681Z,93282.44
2022-12-24T09:39:10.041Z,93173.03
2022-12-24T09:42:15.001Z,93047.19
2022-12-24T09:44:44.081Z,92952.88
2022-12-24T09:47:38.597Z,92868.59
2022-12-24T09:50:09.416Z,92771.03
2022-12-24T09:52:36.787Z,92695.13
2022-12-24T09:55:12.481Z,92636.47
2022-12-24T09:57:39.086Z,92607.88
2022-12-24T10:00:09.143Z,92568.38
2022-12-24T10:02:35.742Z,92559.06
2022-12-24T10:05:02.237Z,92565.38
2022-12-24T10:07:35.017Z,92585.81
2022-12-24T10:10:10.738Z,92615.22
2022-12-24T10:13:16.302Z,92656.50
2022-12-24T10:15:57.076Z,92690.31
2022-12-24T10:18:48.890Z,92740.41
2022-12-24T10:21:16.999Z,92800.56
2022-12-24T10:23:47.877Z,92847.13
2022-12-24T10:26:36.290Z,92900.50
2022-12-24T10:29:09.051Z,92976.84
2022-12-24T10:31:36.663Z,93043.88
2022-12-24T10:34:05.789Z,93083.63
2022-12-24T10:36:32.320Z,93116.84
2022-12-24T10:38:58.937Z,93140.94
2022-12-24T10:41:25.746Z,93225.72
2022-12-24T10:43:52.145Z,93293.25
2022-12-24T10:46:19.068Z,93357.56
2022-12-24T10:48:57.860Z,93419.91
2022-12-24T10:51:55.136Z,93449.22
2022-12-24T10:54:27.525Z,93461.50
2022-12-24T10:57:01.304Z,93500.75
2022-12-24T10:59:33.827Z,93525.47
2022-12-24T11:02:01.176Z,93530.47
2022-12-24T11:04:29.537Z,93559.00
2022-12-24T11:07:03.095Z,93604.06
2022-12-24T11:09:36.600Z,93641.44
2022-12-24T11:12:09.323Z,93672.44
2022-12-24T11:14:37.589Z,93681.31
2022-12-24T11:17:03.966Z,93690.16
2022-12-24T11:19:32.574Z,93676.06
2022-12-24T11:22:17.668Z,93639.88
2022-12-24T11:24:49.793Z,93651.16
2022-12-24T11:27:35.043Z,93643.50
2022-12-24T11:30:17.116Z,93627.84
2022-12-24T11:33:04.197Z,93580.41
2022-12-24T11:35:32.385Z,93559.69
2022-12-24T11:38:05.023Z,93524.13
2022-12-24T11:40:43.903Z,93530.34
2022-12-24T11:43:20.638Z,93515.28
2022-12-24T11:45:56.969Z,93502.19
2022-12-24T11:48:31.329Z,93488.69
2022-12-24T11:51:02.123Z,93463.72
2022-12-24T11:53:36.291Z,93494.09
2022-12-24T11:56:03.952Z,93501.13
2022-12-24T11:59:22.521Z,93441.63
2022-12-24T12:02:12.927Z,93366.13
2022-12-24T12:04:39.409Z,93308.50
2022-12-24T12:07:15.824Z,93215.41
2022-12-24T12:09:44.461Z,93098.31
2022-12-24T12:12:15.351Z,92998.63
2022-12-24T12:14:54.231Z,92896.41
2022-12-24T12:17:42.289Z,92811.69
2022-12-24T12:20:34.911Z,92701.97
2022-12-24T12:23:17.907Z,92605.81
2022-12-24T12:25:47.681Z,92558.22
2022-12-24T12:28:26.925Z,92487.16
2022-12-24T12:31:10.401Z,92446.38
2022-12-24T12:34:00.537Z,92438.25
2022-12-24T12:36:31.425Z,92427.78
2022-12-24T12:38:57.824Z,92423.38
2022-12-24T12:41:33.461Z,92428.28
2022-12-24T12:43:59.807Z,92434.06
2022-12-24T12:46:38.111Z,92449.41
2022-12-24T12:49:52.596Z,92458.00
2022-12-24T12:52:44.280Z,92451.06
2022-12-24T12:55:24.368Z,92451.53
2022-12-24T12:57:51.907Z,92495.38
2022-12-24T13:00:19.155Z,92494.34
2022-12-24T13:02:48.636Z,92505.81
2022-12-24T13:05:33.135Z,92500.28
2022-12-24T13:08:13.183Z,92507.22
2022-12-24T13:10:45.630Z,92518.34
2022-12-24T13:13:52.058Z,92522.22
2022-12-24T13:16:39.959Z,92547.22
2022-12-24T13:19:18.800Z,92589.00
2022-12-24T13:21:45.868Z,92633.94
2022-12-24T13:24:20.995Z,92707.03
2022-12-24T13:27:19.519Z,92752.44
2022-12-24T13:30:25.024Z,92756.84
2022-12-24T13:32:53.103Z,92706.34
2022-12-24T13:35:19.477Z,92613.28
2022-12-24T13:37:48.940Z,92539.09
2022-12-24T13:40:25.156Z,92488.88
2022-12-24T13:42:52.341Z,92398.78
2022-12-24T13:45:31.618Z,92291.00
2022-12-24T13:48:08.371Z,92191.78
2022-12-24T13:50:37.016Z,92110.34
2022-12-24T13:53:03.507Z,92017.72
2022-12-24T13:55:29.912Z,91905.31
2022-12-24T13:57:59.945Z,91818.19
2022-12-24T14:00:33.742Z,91715.91
2022-12-24T14:03:24.633Z,91630.09
2022-12-24T14:05:56.928Z,91542.19
2022-12-24T14:08:23.289Z,91452.97
2022-12-24T14:11:19.680Z,91376.56
2022-12-24T14:13:46.004Z,91342.91
2022-12-24T14:16:23.762Z,91296.78
2022-12-24T14:19:16.312Z,91229.47
2022-12-24T14:21:49.806Z,91176.50
2022-12-24T14:24:18.124Z,91103.75
2022-12-24T14:26:47.138Z,91057.06
2022-12-24T14:29:32.066Z,91007.25
2022-12-24T14:31:59.656Z,90962.66
2022-12-24T14:34:26.939Z,90944.19
2022-12-24T14:36:55.224Z,90963.25
2022-12-24T14:39:35.567Z,91000.94
2022-12-24T14:42:05.195Z,91053.09
2022-12-24T14:44:36.391Z,91131.97
2022-12-24T14:47:22.209Z,91183.31
2022-12-24T14:50:00.838Z,91243.44
2022-12-24T14:53:04.010Z,91272.34
2022-12-24T14:55:35.627Z,91308.28
2022-12-24T14:58:25.120Z,91360.31
2022-12-24T15:00:52.486Z,91384.25
2022-12-24T15:03:20.833Z,91394.16
2022-12-24T15:05:51.350Z,91394.16
2022-12-24T15:08:28.409Z,91415.25
2022-12-24T15:10:55.591Z,91401.97
2022-12-24T15:13:36.493Z,91383.50
2022-12-24T15:16:14.599Z,91347.84
2022-12-24T15:19:06.096Z,91307.22
2022-12-24T15:21:34.194Z,91272.06
2022-12-24T15:24:00.934Z,91254.09
2022-12-24T15:26:29.254Z,91221.81
2022-12-24T15:29:02.786Z,91185.34
2022-12-24T15:31:30.092Z,91155.41
2022-12-24T15:33:56.942Z,91128.63
2022-12-24T15:36:33.922Z,91093.72
2022-12-24T15:39:02.853Z,91084.06
2022-12-24T15:42:06.206Z,91044.00
2022-12-24T15:44:36.913Z,91014.56
2022-12-24T15:47:04.856Z,91001.53
2022-12-24T15:49:31.745Z,90995.53
2022-12-24T15:52:11.754Z,90960.38
2022-12-24T15:54:43.389Z,90942.16
2022-12-24T15:57:42.211Z,90932.03
2022-12-24T16:00:23.711Z,90916.66
2022-12-24T16:02:50.352Z,90911.19
2022-12-24T16:05:27.629Z,90897.38
2022-12-24T16:08:09.419Z,90884.34
2022-12-24T16:10:40.099Z,90886.97
2022-12-24T16:13:19.724Z,90881.25
2022-12-24T16:15:48.944Z,90880.72
2022-12-24T16:18:17.201Z,90875.50
2022-12-24T16:20:48.495Z,90897.41
2022-12-24T16:23:26.000Z,90903.13
2022-12-24T16:25:55.462Z,90905.47
2022-12-24T16:28:23.213Z,90911.75
2022-12-24T16:30:50.156Z,90911.75
2022-12-24T16:33:18.501Z,90925.28
2022-12-24T16:35:45.035Z,90914.09
2022-12-24T16:38:13.449Z,90921.38
2022-12-24T16:40:41.135Z,90924.50
2022-12-24T16:43:26.673Z,90917.75
2022-12-24T16:45:53.245Z,90922.44
2022-12-24T16:48:28.831Z,90926.09
2022-12-24T16:50:55.306Z,90940.13
2022-12-24T16:53:21.916Z,90957.84
2022-12-24T16:55:49.634Z,90967.75
2022-12-24T16:58:17.444Z,90983.34
2022-12-24T17:00:44.786Z,91010.41
2022-12-24T17:03:11.710Z,91020.81
2022-12-24T17:05:39.443Z,91043.22
2022-12-24T17:08:06.521Z,91049.44
2022-12-24T17:10:33.055Z,91089.53
2022-12-24T17:12:59.467Z,91123.88
2022-12-24T17:15:25.849Z,91138.72
2022-12-24T17:17:52.281Z,91177.22
2022-12-24T17:20:23.814Z,91204.03
2022-12-24T17:22:50.806Z,91233.97
2022-12-24T17:25:17.305Z,91269.09
2022-12-24T17:27:43.825Z,91316.91
2022-12-24T17:30:10.546Z,91335.13
2022-12-24T17:32:37.573Z,91360.09
2022-12-24T17:35:04.341Z,91388.66
2022-12-24T17:37:30.779Z,91406.84
2022-12-24T17:39:57.295Z,91432.34
2022-12-24T17:42:23.760Z,91468.13
2022-12-24T17:44:50.159Z,91501.88
2022-12-24T17:47:16.612Z,91529.91
2022-12-24T17:49:43.192Z,91579.69
2022-12-24T17:52:09.636Z,91642.44
2022-12-24T17:54:36.052Z,91699.66
2022-12-24T17:57:02.503Z,91746.00
2022-12-24T17:59:28.930Z,91800.41
2022-12-24T18:01:55.465Z,91852.19
2022-12-24T18:04:21.923Z,91856.94
2022-12-24T18:06:49.726Z,91880.22
2022-12-24T18:09:16.404Z,91862.22
2022-12-24T18:11:42.846Z,91797.59
2022-12-24T18:14:10.546Z,91746.34
2022-12-24T18:16:38.426Z,91698.59
2022-12-24T18:19:06.211Z,91695.53
2022-12-24T18:21:33.213Z,91683.56
2022-12-24T18:23:59.840Z,91679.44
2022-12-24T18:26:27.821Z,91674.22
2022-12-24T18:28:55.345Z,91678.97
2022-12-24T18:31:22.067Z,91686.75
2022-12-24T18:33:49.281Z,91690.94
2022-12-24T18:36:15.745Z,91703.38
2022-12-24T18:38:42.116Z,91713.78
2022-12-24T18:41:10.680Z,91734.28
2022-12-24T18:43:37.178Z,91740.25
2022-12-24T18:46:30.652Z,91746.78
2022-12-24T18:48:57.666Z,91776.19
2022-12-24T18:51:24.479Z,91788.97
2022-12-24T18:53:51.196Z,91803.75
2022-12-24T18:56:22.509Z,91821.41
2022-12-24T18:58:49.034Z,91858.03
2022-12-24T19:01:26.088Z,91869.47
2022-12-24T19:03:52.606Z,91882.22
2022-12-24T19:06:19.477Z,91907.13
2022-12-24T19:08:57.184Z,91897.34
2022-12-24T19:11:24.579Z,91898.94
2022-12-24T19:13:51.683Z,91914.53
2022-12-24T19:16:18.294Z,91914.06
2022-12-24T19:18:44.939Z,91912.28
2022-12-24T19:21:12.296Z,91912.59
2022-12-24T19:23:38.672Z,91930.78
2022-12-24T19:26:05.542Z,91964.81
2022-12-24T19:28:32.109Z,91990.03
2022-12-24T19:31:09.083Z,92016.81
2022-12-24T19:33:43.541Z,92048.25
2022-12-24T19:36:12.312Z,92075.06
2022-12-24T19:38:38.837Z,92100.25
2022-12-24T19:41:16.208Z,92122.09
2022-12-24T19:43:48.039Z,92156.91
2022-12-24T19:46:16.448Z,92165.75
2022-12-24T19:48:43.109Z,92181.34
2022-12-24T19:51:10.822Z,92189.16
2022-12-24T19:53:37.685Z,92214.13
2022-12-24T19:56:04.317Z,92223.72
2022-12-24T19:58:34.463Z,92241.72
2022-12-24T20:01:28.484Z,92267.72
2022-12-24T20:03:55.232Z,92289.31
2022-12-24T20:06:23.623Z,92309.53
2022-12-24T20:08:50.140Z,92343.78
2022-12-24T20:11:18.019Z,92363.81
2022-12-24T20:13:44.603Z,92384.59
2022-12-24T20:16:15.846Z,92412.19
2022-12-24T20:18:42.328Z,92429.38
2022-12-24T20:21:10.693Z,92457.84
2022-12-24T20:23:38.346Z,92496.72
2022-12-24T20:26:05.263Z,92501.16
2022-12-24T20:28:32.764Z,92531.97
2022-12-24T20:30:59.145Z,92552.19
2022-12-24T20:33:25.729Z,92561.59
2022-12-24T20:35:52.115Z,92576.63
2022-12-24T20:38:18.530Z,92603.47
2022-12-24T20:40:45.600Z,92654.94
2022-12-24T20:43:12.461Z,92705.81
2022-12-24T20:45:39.150Z,92720.22
2022-12-24T20:48:06.405Z,92741.44
2022-12-24T20:50:32.820Z,92766.72
2022-12-24T20:52:59.189Z,92817.53
2022-12-24T20:55:25.569Z,92871.53
2022-12-24T20:57:52.269Z,92938.69
2022-12-24T21:00:19.854Z,93014.53
2022-12-24T21:02:46.627Z,93061.47
2022-12-24T21:05:13.129Z,93121.13
2022-12-24T21:07:39.944Z,93177.78
2022-12-24T21:10:07.481Z,93204.09
2022-12-24T21:12:48.721Z,93210.66
2022-12-24T21:15:19.258Z,93230.78
2022-12-24T21:17:46.205Z,93249.69
2022-12-24T21:20:12.898Z,93257.03
2022-12-24T21:22:39.389Z,93260.63
2022-12-24T21:25:06.412Z,93269.38
2022-12-24T21:27:32.852Z,93292.47
2022-12-24T21:29:59.425Z,93316.72
2022-12-24T21:32:25.850Z,93344.22
2022-12-24T21:34:52.265Z,93345.41
2022-12-24T21:37:19.056Z,93367.25
2022-12-24T21:39:45.438Z,93379.56
2022-12-24T21:42:11.820Z,93403.81
2022-12-24T21:44:38.232Z,93421.69
2022-12-24T21:47:04.811Z,93430.00
2022-12-24T21:49:49.762Z,93442.91
2022-12-24T21:52:16.146Z,93478.13
2022-12-24T21:54:42.619Z,93487.84
2022-12-24T21:57:27.849Z,93493.56
2022-12-24T21:59:55.865Z,93500.25
2022-12-24T22:02:26.580Z,93519.72
2022-12-24T22:04:53.467Z,93529.66
2022-12-24T22:07:45.051Z,93560.63
2022-12-24T22:10:30.869Z,93554.63
2022-12-24T22:12:59.015Z,93553.84
2022-12-24T22:15:25.422Z,93591.59
2022-12-24T22:17:51.811Z,93603.13
2022-12-24T22:20:18.276Z,93616.41
2022-12-24T22:22:44.629Z,93620.63
2022-12-24T22:25:11.052Z,93628.38
2022-12-24T22:27:37.432Z,93611.22
2022-12-24T22:30:04.148Z,93603.47
2022-12-24T22:32:30.521Z,93594.09
2022-12-24T22:34:56.885Z,93588.28
2022-12-24T22:37:23.301Z,93591.88
2022-12-24T22:39:49.668Z,93600.97
2022-12-24T22:42:16.076Z,93560.09
2022-12-24T22:44:42.447Z,93516.00
2022-12-24T22:47:08.819Z,93469.84
2022-12-24T22:49:37.065Z,93426.25
2022-12-24T22:52:03.581Z,93392.59
2022-12-24T22:54:29.950Z,93388.13
2022-12-24T22:56:56.299Z,93402.78
2022-12-24T22:59:22.684Z,93422.25
2022-12-24T23:01:49.198Z,93436.91
2022-12-24T23:04:15.730Z,93457.94
2022-12-24T23:06:42.189Z,93488.13
2022-12-24T23:09:09.443Z,93539.50
2022-12-24T23:11:36.014Z,93553.59
2022-12-24T23:14:21.266Z,93554.56
2022-12-24T23:16:47.629Z,93577.22
2022-12-24T23:19:14.050Z,93589.72
2022-12-24T23:21:40.475Z,93617.09
2022-12-24T23:24:07.441Z,93641.69
2022-12-24T23:26:33.787Z,93669.84
2022-12-24T23:29:00.330Z,93690.53
2022-12-24T23:31:26.835Z,93703.19
2022-12-24T23:33:53.324Z,93704.31
2022-12-24T23:36:19.808Z,93701.56
2022-12-24T23:38:46.164Z,93693.75
2022-12-24T23:41:12.551Z,93667.38
2022-12-24T23:43:39.003Z,93646.03
2022-12-24T23:46:05.902Z,93624.19
2022-12-24T23:48:32.309Z,93626.50
2022-12-24T23:51:10.126Z,93648.41
2022-12-24T23:53:36.670Z,93652.75
2022-12-24T23:56:03.400Z,93655.03
2022-12-24T23:58:29.763Z,93647.44
